Time;durP1;ratioP1;P1;durP2;ratioP2;P2;SDS_P1;SDS_P2;PMS_P1;PMS_P2;Temp;Humidity;BMP_temperature;BMP_pressure;BME280_temperature;BME280_humidity;BME280_pressure;Samples;Min_cycle;Max_cycle;Signal;HPM_P1;HPM_P2
2021/12/29 00:04:59;;;;;;;21.70;12.60;;;;;;;-4.08;80.32;98629.22;207057;1315;141967;-69
2021/12/29 00:10:03;;;;;;;32.70;14.50;;;;;;;-4.05;80.43;98635.56;207639;1318;141302;-66
2021/12/29 00:15:12;;;;;;;33.20;16.40;;;;;;;-4.07;80.32;98629.67;208518;1318;140225;-68
2021/12/29 00:20:16;;;;;;;;;;;;;;;-4.08;80.42;98631.05;208157;1318;140587;-68
2021/12/29 00:25:20;;;;;;;34.50;16.90;;;;;;;-4.10;80.34;98631.02;209944;1318;126648;-70
2021/12/29 00:30:23;;;;;;;32.20;17.70;;;;;;;-4.04;80.25;98631.27;208374;1318;140805;-67
2021/12/29 00:35:29;;;;;;;40.90;20.10;;;;;;;-3.99;80.05;98637.98;209195;1316;140806;-69
2021/12/29 00:40:34;;;;;;;29.40;14.70;;;;;;;-3.98;80.19;98633.27;207936;1316;142130;-67
2021/12/29 00:45:40;;;;;;;32.00;17.40;;;;;;;-4.00;80.03;98627.94;208419;1315;140224;-70
2021/12/29 00:50:49;;;;;;;34.60;19.30;;;;;;;-4.03;80.02;98624.00;207311;1316;140621;-66
2021/12/29 00:55:52;;;;;;;33.90;18.40;;;;;;;-4.00;79.95;98620.09;207260;1316;143487;-70
2021/12/29 01:01:01;;;;;;;30.60;16.90;;;;;;;-4.02;80.21;98617.39;208537;1318;142314;-70
2021/12/29 01:06:04;;;;;;;31.60;17.30;;;;;;;-4.06;80.21;98609.08;208432;1316;142738;-67
2021/12/29 01:11:08;;;;;;;31.60;16.80;;;;;;;-4.01;80.12;98601.65;207975;1316;140818;-65
2021/12/29 01:21:44;;;;;;;27.80;13.70;;;;;;;-3.99;80.03;98586.59;207237;1316;139944;-65
2021/12/29 01:26:49;;;;;;;39.00;19.70;;;;;;;-4.02;80.10;98584.05;207656;1316;141275;-67
2021/12/29 01:31:53;;;;;;;18.40;10.00;;;;;;;-3.99;80.15;98580.39;207549;1316;140800;-67
2021/12/29 01:36:56;;;;;;;19.70;11.30;;;;;;;-4.03;80.10;98580.11;207095;1316;140857;-66
2021/12/29 01:41:59;;;;;;;35.40;18.90;;;;;;;-4.11;80.13;98582.06;207959;1312;140477;-67
2021/12/29 01:47:02;;;;;;;30.60;15.30;;;;;;;-4.15;80.06;98592.42;207919;1316;140615;-67
2021/12/29 01:52:12;;;;;;;27.90;17.60;;;;;;;-4.16;80.04;98589.91;207951;1316;140787;-67
2021/12/29 01:57:17;;;;;;;23.40;13.30;;;;;;;-4.19;80.18;98591.61;208329;1315;139815;-66
2021/12/29 02:02:21;;;;;;;20.20;13.80;;;;;;;-4.21;80.35;98604.37;207157;1318;139584;-68
2021/12/29 02:07:24;;;;;;;28.70;14.30;;;;;;;-4.19;80.27;98611.27;208794;1316;141908;-71
2021/12/29 02:12:37;;;;;;;;;;;;;;;;;;;;;
2021/12/29 02:17:40;;;;;;;26.10;11.60;;;;;;;-4.16;80.23;98615.74;209389;1317;140894;-67
2021/12/29 02:22:47;;;;;;;30.50;14.30;;;;;;;-4.15;80.31;98608.35;207836;1316;139898;-67
2021/12/29 02:27:53;;;;;;;30.40;19.20;;;;;;;-4.11;80.16;98606.20;209339;1316;141196;-67
2021/12/29 02:33:02;;;;;;;32.10;19.20;;;;;;;-4.07;79.97;98602.38;208356;1318;141137;-64
2021/12/29 02:38:10;;;;;;;29.30;14.70;;;;;;;-4.01;80.29;98609.06;209041;1321;139902;-67
2021/12/29 02:43:19;;;;;;;29.80;14.50;;;;;;;-3.98;80.28;98610.80;208522;1319;141122;-68
2021/12/29 02:48:23;;;;;;;30.40;16.30;;;;;;;-3.93;80.23;98610.77;208592;1316;140470;-66
2021/12/29 02:53:27;;;;;;;35.50;20.70;;;;;;;-3.84;80.12;98613.92;206848;1316;140056;-69
2021/12/29 02:58:31;;;;;;;25.90;14.20;;;;;;;-3.80;80.02;98615.00;208243;1319;140727;-70
2021/12/29 03:03:37;;;;;;;32.50;16.20;;;;;;;-3.83;80.18;98616.74;207855;1318;140936;-67
2021/12/29 03:08:43;;;;;;;29.20;18.60;;;;;;;-3.76;80.18;98620.36;207424;1318;141256;-65
2021/12/29 03:13:47;;;;;;;29.30;16.10;;;;;;;-3.70;80.12;98619.01;207187;1318;140394;-66
2021/12/29 03:18:50;;;;;;;30.10;15.00;;;;;;;-3.70;80.21;98612.89;207498;1316;140323;-66
2021/12/29 03:23:54;;;;;;;32.10;17.10;;;;;;;-3.70;80.31;98611.52;207545;1315;139630;-65
2021/12/29 03:28:57;;;;;;;30.00;15.90;;;;;;;-3.67;80.25;98609.27;208564;1319;140341;-66
2021/12/29 03:34:04;;;;;;;18.90;10.60;;;;;;;-3.60;80.20;98605.19;207545;1315;140055;-65
2021/12/29 03:39:10;;;;;;;26.50;14.10;;;;;;;-3.59;80.32;98606.61;207676;1318;139752;-64
2021/12/29 03:44:14;;;;;;;32.60;17.90;;;;;;;-3.60;80.34;98602.39;207215;1316;140510;-64
2021/12/29 03:49:17;;;;;;;37.00;18.70;;;;;;;-3.56;80.40;98600.19;208004;1316;141838;-65
2021/12/29 03:54:20;;;;;;;42.50;19.90;;;;;;;-3.48;80.34;98600.02;207685;1316;140578;-65
2021/12/29 03:59:24;;;;;;;32.50;19.70;;;;;;;-3.41;80.42;98613.09;207265;1318;141274;-65
2021/12/29 04:04:27;;;;;;;32.40;16.70;;;;;;;-3.38;80.36;98625.29;208160;1316;141058;-66
2021/12/29 04:09:30;;;;;;;28.10;16.20;;;;;;;-3.40;80.43;98624.78;208568;1316;140386;-66
2021/12/29 04:14:33;;;;;;;28.10;16.70;;;;;;;-3.41;80.11;98621.73;207158;1316;143940;-66
2021/12/29 04:20:54;;;;;;;36.90;18.80;;;;;;;-3.37;80.19;98628.00;207389;1317;141282;-65
2021/12/29 04:25:02;;;;;;;24.30;16.40;;;;;;;-3.34;80.33;98629.86;208726;1316;140873;-66
2021/12/29 04:30:04;;;;;;;29.00;13.80;;;;;;;-3.35;80.34;98631.17;207740;1316;141127;-66
2021/12/29 04:35:07;;;;;;;33.90;16.50;;;;;;;-3.34;80.25;98634.56;208326;1316;141378;-66
2021/12/29 04:40:10;;;;;;;22.90;11.50;;;;;;;-3.31;79.96;98635.29;209407;1312;142044;-66
2021/12/29 04:45:13;;;;;;;31.40;15.40;;;;;;;-3.30;80.23;98638.05;209386;1317;140806;-66
2021/12/29 04:50:35;;;;;;;39.90;19.70;;;;;;;-3.27;80.24;98639.80;208369;1317;142150;-66
2021/12/29 04:55:39;;;;;;;30.70;15.80;;;;;;;-3.18;80.27;98646.61;208579;1316;141045;-66
2021/12/29 05:00:46;;;;;;;33.70;16.70;;;;;;;-3.11;80.13;98653.96;209379;1316;140305;-66
2021/12/29 05:11:10;;;;;;;33.20;17.30;;;;;;;-3.11;80.21;98654.61;208606;1316;128396;-65
2021/12/29 05:16:13;;;;;;;27.40;14.40;;;;;;;-3.05;80.20;98653.56;208005;1316;141637;-65
2021/12/29 05:21:15;;;;;;;24.50;13.30;;;;;;;-3.03;80.26;98657.21;208167;1316;139975;-66
2021/12/29 05:26:18;;;;;;;34.40;18.70;;;;;;;-3.03;80.31;98659.69;206791;1316;139900;-65
2021/12/29 05:31:21;;;;;;;28.10;15.10;;;;;;;-3.03;80.24;98660.86;208175;1316;139863;-65
2021/12/29 05:36:25;;;;;;;25.60;16.40;;;;;;;-2.99;80.35;98656.73;207725;1317;140065;-65
2021/12/29 05:41:28;;;;;;;33.80;19.00;;;;;;;-2.96;80.53;98666.39;207385;1316;140594;-66
2021/12/29 05:46:32;;;;;;;39.10;18.10;;;;;;;-2.96;80.53;98669.32;207413;1316;139683;-66
2021/12/29 05:51:35;;;;;;;36.90;18.40;;;;;;;-2.97;80.50;98674.60;207082;1316;515323;-66
2021/12/29 05:56:38;;;;;;;32.10;15.80;;;;;;;-2.93;80.41;98677.61;207120;1320;140785;-66
2021/12/29 06:01:42;;;;;;;33.70;17.30;;;;;;;-2.91;80.51;98679.52;208164;1312;205553;-66
2021/12/29 06:06:45;;;;;;;32.50;14.30;;;;;;;-2.90;80.63;98683.92;208490;1315;140396;-66
2021/12/29 06:11:48;;;;;;;37.10;18.90;;;;;;;-2.90;80.65;98683.00;208376;1316;140248;-66
2021/12/29 06:16:52;;;;;;;25.40;14.50;;;;;;;-2.85;80.53;98682.65;207485;1316;140787;-66
2021/12/29 06:21:55;;;;;;;19.70;11.20;;;;;;;-2.84;80.54;98683.27;207904;1316;140585;-66
2021/12/29 06:26:57;;;;;;;17.90;9.60;;;;;;;-2.87;80.76;98682.73;208926;1316;139383;-66
2021/12/29 06:32:00;;;;;;;39.10;19.60;;;;;;;-2.87;80.71;98685.95;209097;1316;141523;-66
2021/12/29 06:37:08;;;;;;;33.50;16.20;;;;;;;-2.80;80.51;98690.80;208095;1317;140722;-66
2021/12/29 06:42:15;;;;;;;23.20;14.00;;;;;;;-2.76;80.64;98696.52;207943;1316;140023;-67
2021/12/29 06:47:18;;;;;;;30.60;16.90;;;;;;;-2.78;80.84;98703.52;208695;1320;139928;-67
2021/12/29 06:52:21;;;;;;;49.10;22.90;;;;;;;-2.76;80.76;98706.23;208205;1316;142099;-65
2021/12/29 06:57:24;;;;;;;32.20;18.30;;;;;;;-2.72;80.57;98707.81;207809;1319;140364;-64
2021/12/29 07:02:29;;;;;;;39.70;20.60;;;;;;;-2.68;80.88;98710.89;208953;1316;141274;-66
2021/12/29 07:07:36;;;;;;;31.20;14.90;;;;;;;-2.65;80.72;98715.08;208082;1318;140940;-66
2021/12/29 07:12:40;;;;;;;36.60;21.40;;;;;;;-2.64;80.68;98720.23;207608;1319;140564;-66
2021/12/29 07:17:43;;;;;;;42.90;21.10;;;;;;;-2.58;81.01;98733.46;207554;1316;141670;-65
2021/12/29 07:22:47;;;;;;;47.10;22.40;;;;;;;-2.46;81.09;98739.57;208245;1316;140098;-65
2021/12/29 07:27:52;;;;;;;39.30;19.30;;;;;;;-2.40;81.12;98745.40;207824;1317;140795;-66
2021/12/29 07:32:55;;;;;;;41.70;21.50;;;;;;;-2.43;80.98;98745.38;207623;1316;141880;-66
2021/12/29 07:38:00;;;;;;;46.50;22.60;;;;;;;-2.43;80.96;98743.27;208008;1317;139558;-65
2021/12/29 07:43:04;;;;;;;35.80;19.10;;;;;;;-2.39;80.88;98737.06;207382;1315;140094;-65
2021/12/29 07:48:09;;;;;;;36.60;17.50;;;;;;;-2.38;81.03;98742.54;207626;1316;140246;-66
2021/12/29 07:53:15;;;;;;;43.30;24.40;;;;;;;-2.42;80.96;98749.00;206791;1317;139497;-66
2021/12/29 07:58:20;;;;;;;54.80;22.90;;;;;;;-2.41;80.90;98750.55;207649;1317;141138;-65
2021/12/29 08:03:25;;;;;;;35.10;18.90;;;;;;;-2.36;81.27;98755.23;207009;1317;140998;-64
2021/12/29 08:08:31;;;;;;;35.30;17.70;;;;;;;-2.33;81.34;98766.88;206958;1317;140603;-64
2021/12/29 08:13:34;;;;;;;50.10;22.70;;;;;;;-2.33;81.37;98779.80;207850;1316;139605;-66
2021/12/29 08:18:42;;;;;;;49.00;25.40;;;;;;;-2.24;81.40;98786.10;207469;1316;140429;-65
2021/12/29 08:23:45;;;;;;;44.90;25.80;;;;;;;-2.17;81.27;98782.09;207085;1318;139598;-69
2021/12/29 08:28:50;;;;;;;50.30;24.60;;;;;;;-2.11;81.46;98784.52;207654;1316;140201;-64
2021/12/29 08:33:55;;;;;;;51.80;26.90;;;;;;;-2.06;81.13;98790.04;208010;1316;141616;-66
2021/12/29 08:39:01;;;;;;;34.70;20.30;;;;;;;-2.02;81.01;98796.73;208184;1317;140424;-66
2021/12/29 08:44:04;;;;;;;46.80;26.90;;;;;;;-2.01;81.09;98804.30;208602;1318;141195;-66
2021/12/29 08:49:08;;;;;;;53.00;28.10;;;;;;;-2.00;81.13;98810.17;208952;1314;140701;-66
2021/12/29 08:54:12;;;;;;;62.30;29.90;;;;;;;-1.94;81.25;98812.40;209583;1316;142593;-68
2021/12/29 08:59:16;;;;;;;51.40;28.80;;;;;;;-1.78;81.24;98805.97;208064;1318;140871;-68
2021/12/29 09:04:20;;;;;;;43.10;24.20;;;;;;;-1.63;81.42;98807.69;208422;1317;141619;-68
2021/12/29 09:09:24;;;;;;;52.60;28.50;;;;;;;-1.59;81.18;98804.05;208082;1315;140412;-68
2021/12/29 09:14:26;;;;;;;54.20;24.60;;;;;;;-1.54;81.22;98799.17;209207;1316;139385;-69
2021/12/29 09:19:33;;;;;;;65.10;30.70;;;;;;;-1.48;81.31;98800.98;208213;1316;140411;-69
2021/12/29 09:24:36;;;;;;;64.90;34.30;;;;;;;-1.35;80.98;98804.14;208159;1316;140623;-69
2021/12/29 09:29:48;;;;;;;59.10;31.30;;;;;;;-1.23;81.24;98821.23;207562;1316;141887;-68
2021/12/29 09:34:57;;;;;;;59.50;32.50;;;;;;;-1.14;81.13;98828.53;207037;1316;142125;-67
2021/12/29 09:40:01;;;;;;;55.40;27.00;;;;;;;-1.12;81.25;98827.55;207263;1316;141384;-68
2021/12/29 09:45:06;;;;;;;67.70;32.30;;;;;;;-1.11;81.09;98829.26;207583;1316;140446;-67
2021/12/29 09:50:11;;;;;;;72.90;33.60;;;;;;;-1.00;81.16;98830.77;207291;1316;141414;-69
2021/12/29 09:55:17;;;;;;;59.60;32.40;;;;;;;-0.98;81.00;98830.64;207350;1316;225049;-68
2021/12/29 10:00:22;;;;;;;58.40;31.60;;;;;;;-1.03;80.88;98822.33;207302;1316;140470;-68
2021/12/29 10:05:27;;;;;;;58.70;32.60;;;;;;;-1.01;80.79;98825.73;207031;1316;142140;-68
2021/12/29 10:10:32;;;;;;;66.60;34.10;;;;;;;-0.91;81.02;98830.27;207629;1316;143248;-68
2021/12/29 10:16:01;;;;;;;58.30;31.30;;;;;;;-0.86;80.80;98831.77;207096;1318;141021;-68
2021/12/29 10:21:09;;;;;;;74.40;34.40;;;;;;;-0.86;80.93;98823.98;207330;1316;141059;-68
2021/12/29 10:26:16;;;;;;;68.70;35.20;;;;;;;-0.77;81.05;98825.96;208587;1316;139925;-69
2021/12/29 10:31:31;;;;;;;65.20;32.00;;;;;;;-0.67;80.94;98828.13;206984;1315;139750;-67
2021/12/29 10:36:41;;;;;;;68.60;34.40;;;;;;;-0.62;80.93;98832.77;208065;1318;139465;-68
2021/12/29 10:42:04;;;;;;;60.40;31.90;;;;;;;-0.53;81.32;98833.50;208292;1315;140104;-69
2021/12/29 10:47:23;;;;;;;61.80;31.40;;;;;;;-0.41;80.88;98831.87;207123;1318;140865;-68
2021/12/29 10:52:35;;;;;;;66.80;35.90;;;;;;;-0.30;80.54;98828.65;208135;1316;206843;-68
2021/12/29 10:57:40;;;;;;;72.00;34.00;;;;;;;-0.24;80.57;98827.61;207450;1317;142973;-68
2021/12/29 11:02:45;;;;;;;51.40;29.20;;;;;;;-0.19;80.81;98831.86;208469;1318;141360;-69
2021/12/29 11:07:52;;;;;;;72.90;34.20;;;;;;;-0.08;80.67;98833.05;208704;1316;140282;-68
2021/12/29 11:12:57;;;;;;;62.60;32.10;;;;;;;0.01;80.18;98832.52;207500;1317;140838;-68
2021/12/29 11:18:10;;;;;;;68.70;36.80;;;;;;;0.04;80.12;98828.95;208748;1318;139614;-68
2021/12/29 11:23:21;;;;;;;71.00;37.30;;;;;;;0.21;80.50;98823.25;208128;1316;140640;-68
2021/12/29 11:28:28;;;;;;;64.00;32.80;;;;;;;0.34;80.45;98823.01;207997;1318;140558;-66
2021/12/29 11:33:33;;;;;;;69.60;33.10;;;;;;;0.43;80.13;98826.26;208103;1318;140397;-68
2021/12/29 11:38:36;;;;;;;66.00;34.70;;;;;;;0.55;80.14;98835.19;207647;1316;141627;-65
2021/12/29 11:43:45;;;;;;;70.40;36.70;;;;;;;0.59;79.84;98834.57;207405;1316;139922;-66
2021/12/29 11:48:47;;;;;;;59.50;33.90;;;;;;;0.62;79.96;98824.80;207041;1315;139934;-66
2021/12/29 11:53:58;;;;;;;75.30;36.60;;;;;;;0.62;79.81;98823.83;208207;1316;139162;-66
2021/12/29 11:59:10;;;;;;;73.50;36.10;;;;;;;0.74;80.02;98829.15;208166;1316;141263;-66
2021/12/29 12:04:35;;;;;;;54.90;29.60;;;;;;;0.85;80.16;98825.07;207631;1316;140553;-66
2021/12/29 12:09:48;;;;;;;71.40;34.20;;;;;;;0.91;79.82;98822.02;207625;1317;140696;-66
2021/12/29 12:14:52;;;;;;;78.30;41.80;;;;;;;1.07;79.58;98837.38;207190;1316;142107;-65
2021/12/29 12:20:04;;;;;;;64.10;36.50;;;;;;;1.17;79.67;98840.23;206911;1316;140395;-66
2021/12/29 12:25:08;;;;;;;56.20;28.50;;;;;;;1.17;79.75;98841.47;207430;1316;140349;-65
2021/12/29 12:30:16;;;;;;;67.20;36.80;;;;;;;1.08;79.54;98836.91;207233;1317;140996;-65
2021/12/29 12:35:36;;;;;;;65.60;35.50;;;;;;;1.16;79.91;98838.04;207148;1316;141626;-66
2021/12/29 12:40:41;;;;;;;68.70;36.10;;;;;;;1.24;79.61;98843.81;208977;1316;141888;-66
2021/12/29 12:45:47;;;;;;;69.70;36.50;;;;;;;1.25;79.54;98848.15;208225;1316;140700;-66
2021/12/29 12:50:50;;;;;;;67.00;34.80;;;;;;;1.25;79.52;98853.75;206975;1317;139335;-65
2021/12/29 12:55:56;;;;;;;75.20;41.40;;;;;;;1.23;79.52;98860.10;208197;1318;140079;-66
2021/12/29 13:01:10;;;;;;;72.10;35.90;;;;;;;1.27;79.70;98866.34;209251;1318;141512;-65
2021/12/29 13:06:22;;;;;;;61.50;32.90;;;;;;;1.37;79.39;98865.65;209464;1315;141099;-68
2021/12/29 13:11:28;;;;;;;72.10;35.40;;;;;;;1.41;79.19;98879.25;209424;1317;141515;-68
2021/12/29 13:16:32;;;;;;;68.90;37.30;;;;;;;1.43;79.49;98886.40;208678;1313;141807;-68
2021/12/29 13:21:40;;;;;;;73.90;36.20;;;;;;;1.40;79.24;98889.09;209318;1317;140643;-67
2021/12/29 13:26:48;;;;;;;69.50;37.90;;;;;;;1.34;79.11;98893.80;207683;1318;141029;-66
2021/12/29 13:31:56;;;;;;;71.20;39.10;;;;;;;1.36;79.24;98894.00;207886;1316;140426;-68
2021/12/29 13:37:07;;;;;;;64.80;35.60;;;;;;;1.34;79.20;98902.44;208034;1318;140714;-68
2021/12/29 13:42:11;;;;;;;89.80;50.10;;;;;;;1.35;79.64;98908.58;207599;1318;153175;-68
2021/12/29 13:47:25;;;;;;;76.10;41.20;;;;;;;1.35;79.58;98917.23;207044;1315;140734;-65
2021/12/29 13:52:28;;;;;;;79.20;37.80;;;;;;;1.29;79.57;98925.63;207912;1317;519663;-66
2021/12/29 13:57:40;;;;;;;76.00;40.20;;;;;;;1.26;79.23;98929.81;207465;1316;140359;-66
2021/12/29 14:02:45;;;;;;;74.10;42.10;;;;;;;1.23;79.32;98931.47;207435;1317;140530;-67
2021/12/29 14:07:57;;;;;;;85.50;46.40;;;;;;;1.21;79.66;98931.91;206867;1317;139645;-66
2021/12/29 14:13:19;;;;;;;78.10;40.80;;;;;;;1.19;79.76;98935.30;207143;1316;139657;-67
2021/12/29 14:18:25;;;;;;;79.10;40.30;;;;;;;1.12;79.51;98941.75;206893;1316;140187;-67
2021/12/29 14:23:32;;;;;;;74.00;37.00;;;;;;;1.05;79.40;98944.27;207395;1316;140760;-68
2021/12/29 14:28:37;;;;;;;83.90;45.60;;;;;;;1.07;79.59;98951.98;207402;1316;140474;-67
2021/12/29 14:33:47;;;;;;;82.70;45.50;;;;;;;1.07;79.69;98966.34;207012;1318;142247;-67
2021/12/29 14:39:00;;;;;;;88.20;43.70;;;;;;;1.02;79.80;98976.14;208070;1315;139235;-67
2021/12/29 14:44:12;;;;;;;79.30;43.80;;;;;;;0.94;79.83;98983.61;207501;1316;141341;-67
2021/12/29 14:49:15;;;;;;;80.30;40.10;;;;;;;0.90;79.88;98987.45;207341;1316;139640;-67
2021/12/29 14:54:17;;;;;;;74.20;41.60;;;;;;;0.95;79.88;98997.43;208204;1316;231803;-65
2021/12/29 14:59:30;;;;;;;83.10;44.20;;;;;;;1.00;80.04;99003.73;207966;1315;139877;-64
2021/12/29 15:04:37;;;;;;;75.20;44.90;;;;;;;0.99;80.09;99005.57;208251;1316;140430;-66
2021/12/29 15:09:41;;;;;;;77.50;41.20;;;;;;;0.97;79.95;99008.70;208659;1320;141568;-66
2021/12/29 15:14:46;;;;;;;82.60;39.20;;;;;;;0.96;80.20;99008.13;206829;1318;141105;-66
2021/12/29 15:19:59;;;;;;;;;;;;;;;;;;;;;
2021/12/29 15:25:01;;;;;;;80.70;45.30;;;;;;;1.07;80.39;99008.47;209435;1318;140663;-68
2021/12/29 15:30:05;;;;;;;68.20;41.40;;;;;;;1.07;80.09;99011.82;209115;1319;140826;-69
2021/12/29 15:35:09;;;;;;;78.40;46.50;;;;;;;1.09;80.15;99014.30;209343;1316;140946;-67
2021/12/29 15:40:14;;;;;;;81.40;42.60;;;;;;;1.10;80.14;99013.54;207417;1318;140283;-66
2021/12/29 15:45:19;;;;;;;81.90;44.60;;;;;;;1.14;80.01;99016.91;208481;1313;141705;-67
2021/12/29 15:50:31;;;;;;;78.30;45.60;;;;;;;1.15;80.25;99022.34;208163;1315;141679;-66
2021/12/29 15:55:36;;;;;;;87.80;44.10;;;;;;;1.18;80.84;99032.83;207868;1316;139669;-65
2021/12/29 16:00:43;;;;;;;84.80;46.00;;;;;;;1.21;80.46;99039.10;207423;1316;139749;-65
2021/12/29 16:05:47;;;;;;;73.20;40.60;;;;;;;1.22;80.69;99048.51;206967;1313;139828;-65
2021/12/29 16:10:57;;;;;;;80.60;42.20;;;;;;;1.26;80.48;99055.27;207902;1316;141203;-66
2021/12/29 16:16:00;;;;;;;81.10;41.30;;;;;;;1.30;80.77;99060.05;207043;1316;140058;-66
2021/12/29 16:21:03;;;;;;;74.70;40.90;;;;;;;1.31;80.91;99069.45;208765;1315;140655;-65
2021/12/29 16:26:12;;;;;;;76.40;41.40;;;;;;;1.30;81.11;99074.22;207291;1316;141324;-66
2021/12/29 16:31:15;;;;;;;77.50;36.90;;;;;;;1.30;80.94;99071.30;207181;1317;140295;-65
2021/12/29 16:36:19;;;;;;;80.50;44.50;;;;;;;1.32;80.55;99072.86;206666;1316;141813;-65
2021/12/29 16:41:22;;;;;;;71.00;40.90;;;;;;;1.31;80.55;99082.78;207201;1316;141213;-65
2021/12/29 16:46:25;;;;;;;76.30;40.20;;;;;;;1.32;80.80;99091.36;206766;1316;142763;-65
2021/12/29 16:51:31;;;;;;;92.10;42.00;;;;;;;1.32;80.94;99092.24;208045;1318;140844;-66
2021/12/29 16:56:38;;;;;;;81.40;43.60;;;;;;;1.33;80.99;99095.61;208371;1316;141154;-67
2021/12/29 17:01:44;;;;;;;98.70;47.50;;;;;;;1.39;80.86;99103.33;206861;1315;140786;-66
2021/12/29 17:06:47;;;;;;;76.40;43.20;;;;;;;1.41;81.07;99109.13;209061;1315;140735;-68
2021/12/29 17:11:51;;;;;;;77.60;41.10;;;;;;;1.40;80.94;99110.17;209498;1316;139622;-67
2021/12/29 17:16:54;;;;;;;75.10;41.30;;;;;;;1.47;80.84;99111.08;209082;1316;140737;-66
2021/12/29 17:22:06;;;;;;;75.70;43.20;;;;;;;1.52;81.01;99114.10;208670;1316;141705;-70
2021/12/29 17:27:15;;;;;;;80.70;46.90;;;;;;;1.53;81.22;99121.05;208508;1317;140241;-73
2021/12/29 17:32:18;;;;;;;67.80;38.50;;;;;;;1.55;81.38;99121.05;209268;1318;140351;-69
2021/12/29 17:37:21;;;;;;;83.80;43.80;;;;;;;1.59;80.94;99117.89;207929;1318;140913;-67
2021/12/29 17:42:27;;;;;;;77.00;46.10;;;;;;;1.65;81.05;99122.82;207502;1316;140927;-69
2021/12/29 17:47:32;;;;;;;89.40;48.90;;;;;;;1.67;81.19;99133.19;207151;1316;141652;-68
2021/12/29 17:52:35;;;;;;;84.50;42.50;;;;;;;1.62;81.34;99147.42;207659;1316;141152;-68
2021/12/29 17:57:39;;;;;;;79.10;46.90;;;;;;;1.61;80.90;99148.82;207149;1318;141929;-68
2021/12/29 18:02:44;;;;;;;89.10;47.00;;;;;;;1.61;81.30;99157.63;207267;1318;142297;-67
2021/12/29 18:07:47;;;;;;;81.40;40.30;;;;;;;1.61;81.68;99163.16;207785;1318;141134;-69
2021/12/29 18:12:53;;;;;;;75.60;41.30;;;;;;;1.59;81.70;99165.54;206992;1318;140687;-71
2021/12/29 18:18:04;;;;;;;80.60;42.10;;;;;;;1.61;81.53;99170.16;206806;1317;141310;-67
2021/12/29 18:23:08;;;;;;;74.00;42.90;;;;;;;1.64;81.87;99167.91;207450;1316;142875;-71
2021/12/29 18:28:11;;;;;;;98.30;46.00;;;;;;;1.64;82.25;99161.38;207037;1316;141619;-68
2021/12/29 18:33:14;;;;;;;75.10;39.00;;;;;;;1.67;82.41;99158.29;206959;1316;140845;-71
2021/12/29 18:38:17;;;;;;;83.70;44.20;;;;;;;1.69;82.12;99160.57;207697;1317;141098;-67
2021/12/29 18:43:19;;;;;;;73.90;40.50;;;;;;;1.72;82.33;99157.84;208285;1316;140687;-67
2021/12/29 18:48:22;;;;;;;87.00;41.20;;;;;;;1.69;82.53;99160.61;206891;1315;140435;-68
2021/12/29 18:53:27;;;;;;;86.00;39.30;;;;;;;1.68;82.35;99163.91;208732;1316;141593;-73
2021/12/29 18:58:36;;;;;;;87.80;39.50;;;;;;;1.71;82.28;99165.88;208302;1316;140622;-70
2021/12/29 19:03:39;;;;;;;77.50;41.90;;;;;;;1.73;82.42;99168.60;207939;1318;140248;-69
2021/12/29 19:08:44;;;;;;;82.30;38.00;;;;;;;1.75;82.66;99171.81;207748;1316;141390;-67
2021/12/29 19:13:48;;;;;;;73.40;36.00;;;;;;;1.81;82.44;99172.30;207053;1316;141800;-66
2021/12/29 19:18:59;;;;;;;89.60;44.50;;;;;;;1.83;82.67;99171.74;206883;1316;141805;-66
2021/12/29 19:24:05;;;;;;;82.20;43.30;;;;;;;1.81;83.12;99167.41;208908;1315;140027;-66
2021/12/29 19:29:08;;;;;;;74.30;34.40;;;;;;;1.83;82.73;99165.67;208965;1317;140656;-67
2021/12/29 19:34:12;;;;;;;78.10;41.10;;;;;;;1.87;83.03;99165.77;208784;1313;141061;-66
2021/12/29 19:39:35;;;;;;;83.30;41.10;;;;;;;1.94;83.32;99162.25;207632;1317;141398;-66
2021/12/29 19:44:42;;;;;;;74.50;37.60;;;;;;;1.99;82.86;99166.30;208912;1317;140520;-71
2021/12/29 19:49:47;;;;;;;71.50;38.90;;;;;;;2.08;82.77;99166.64;208566;1316;140716;-69
2021/12/29 19:54:54;;;;;;;79.90;40.40;;;;;;;2.10;82.68;99167.38;208466;1317;140457;-67
2021/12/29 19:59:58;;;;;;;74.80;39.50;;;;;;;2.08;82.66;99171.45;208180;1315;140099;-67
2021/12/29 20:05:03;;;;;;;85.90;40.30;;;;;;;2.09;82.86;99175.42;208695;1318;140305;-72
2021/12/29 20:10:12;;;;;;;76.20;38.70;;;;;;;2.14;82.85;99175.27;206766;1318;139805;-72
2021/12/29 20:15:25;;;;;;;76.00;41.90;;;;;;;2.11;82.75;99188.30;206982;1316;139331;-69
2021/12/29 20:20:34;;;;;;;76.00;36.30;;;;;;;2.05;82.69;99189.19;207079;1317;159656;-74
2021/12/29 20:25:37;;;;;;;83.80;39.90;;;;;;;2.00;82.63;99194.77;207401;1316;140591;-67
2021/12/29 20:30:42;;;;;;;80.10;41.40;;;;;;;2.01;83.02;99200.85;206858;1316;140505;-68
2021/12/29 20:35:51;;;;;;;66.90;37.20;;;;;;;2.06;83.42;99194.41;207000;1317;139520;-69
2021/12/29 20:40:54;;;;;;;71.20;33.30;;;;;;;2.03;83.20;99187.56;207602;1316;139391;-71
2021/12/29 20:46:14;;;;;;;75.50;37.30;;;;;;;2.06;83.09;99186.80;207641;1316;141257;-68
2021/12/29 20:51:21;;;;;;;76.60;38.70;;;;;;;2.10;83.66;99187.04;208165;1318;141268;-67
2021/12/29 20:56:25;;;;;;;77.40;37.10;;;;;;;2.12;83.51;99192.64;206849;1317;139060;-72
2021/12/29 21:01:30;;;;;;;76.20;35.50;;;;;;;2.14;83.19;99198.40;208021;1317;141460;-71
2021/12/29 21:06:34;;;;;;;72.30;36.40;;;;;;;2.19;83.40;99201.07;206920;1316;139550;-70
2021/12/29 21:11:36;;;;;;;79.70;36.20;;;;;;;2.23;83.69;99207.92;207819;1313;140207;-65
2021/12/29 21:16:42;;;;;;;77.50;30.20;;;;;;;2.26;83.49;99209.89;208391;1316;140174;-66
2021/12/29 21:21:52;;;;;;;80.70;35.70;;;;;;;2.32;83.22;99217.54;206827;1315;140216;-66
2021/12/29 21:27:08;;;;;;;88.00;46.20;;;;;;;2.31;83.59;99216.56;206907;1317;140471;-68
2021/12/29 21:32:11;;;;;;;76.70;37.40;;;;;;;2.33;83.63;99221.55;208430;1318;139136;-66
2021/12/29 21:37:13;;;;;;;74.30;34.70;;;;;;;2.38;83.68;99219.88;208896;1318;140505;-67
2021/12/29 21:42:18;;;;;;;68.00;35.90;;;;;;;2.37;83.10;99220.04;209667;1315;140450;-67
2021/12/29 21:47:23;;;;;;;71.50;32.50;;;;;;;2.37;83.26;99225.27;208574;1316;144015;-68
2021/12/29 21:52:36;;;;;;;65.30;29.80;;;;;;;2.42;83.32;99228.96;208546;1316;430504;-70
2021/12/29 21:57:41;;;;;;;68.90;34.70;;;;;;;2.51;83.59;99231.55;208314;1316;140999;-71
2021/12/29 22:02:47;;;;;;;73.30;34.70;;;;;;;2.57;83.16;99246.35;208339;1315;142009;-69
2021/12/29 22:07:59;;;;;;;72.50;35.20;;;;;;;2.59;83.34;99249.52;206825;1316;139570;-67
2021/12/29 22:13:02;;;;;;;62.90;31.00;;;;;;;2.61;83.37;99241.92;207815;1315;140213;-69
2021/12/29 22:18:07;;;;;;;59.40;30.00;;;;;;;2.64;83.50;99241.33;206987;1316;140749;-67
2021/12/29 22:23:20;;;;;;;67.00;33.80;;;;;;;2.66;83.46;99252.56;208034;1316;140459;-69
2021/12/29 22:28:25;;;;;;;66.80;31.80;;;;;;;2.69;83.49;99257.67;207708;1315;143227;-68
2021/12/29 22:33:29;;;;;;;55.00;30.90;;;;;;;2.69;83.17;99259.42;207411;1317;140913;-67
2021/12/29 22:38:35;;;;;;;65.40;38.20;;;;;;;2.68;83.51;99251.89;208071;1316;141444;-66
2021/12/29 22:43:40;;;;;;;58.90;28.10;;;;;;;2.68;83.42;99260.50;207556;1317;139822;-66
2021/12/29 22:48:44;;;;;;;85.80;57.90;;;;;;;2.69;83.39;99260.35;207368;1316;141436;-68
2021/12/29 22:53:52;;;;;;;64.20;37.50;;;;;;;2.66;83.37;99260.30;207260;1316;142951;-64
2021/12/29 22:59:00;;;;;;;52.90;27.70;;;;;;;2.66;83.60;99254.35;207225;1316;140979;-65
2021/12/29 23:04:15;;;;;;;;;;;;;;;2.67;83.46;99259.53;208024;1317;139682;-67
2021/12/29 23:09:20;;;;;;;50.10;28.90;;;;;;;2.64;83.64;99269.71;207581;1316;127054;-68
2021/12/29 23:14:25;;;;;;;60.80;32.60;;;;;;;2.63;83.57;99274.04;207005;1316;139800;-67
2021/12/29 23:19:27;;;;;;;55.50;28.00;;;;;;;2.61;83.69;99281.84;206998;1317;142849;-67
2021/12/29 23:24:43;;;;;;;62.10;32.30;;;;;;;2.61;83.49;99293.21;207068;1316;141236;-66